sensor_id;sensor_type;location;lat;lon;timestamp;pressure;altitude;pressure_sealevel;temperature;humidity
17209;BME280;8720;48.488;9.202;2022-12-29T00:00:22;96620.34;;;14.65;54.93
17209;BME280;8720;48.488;9.202;2022-12-29T00:02:49;96630.16;;;14.61;54.74
17209;BME280;8720;48.488;9.202;2022-12-29T00:05:16;96617.22;;;14.56;54.71
17209;BME280;8720;48.488;9.202;2022-12-29T00:07:43;96621.69;;;14.54;54.71
17209;BME280;8720;48.488;9.202;2022-12-29T00:10:12;96620.91;;;14.52;54.71
17209;BME280;8720;48.488;9.202;2022-12-29T00:12:39;96622.66;;;14.52;55.20
17209;BME280;8720;48.488;9.202;2022-12-29T00:15:24;96618.44;;;14.49;55.25
17209;BME280;8720;48.488;9.202;2022-12-29T00:18:07;96608.81;;;14.48;55.14
17209;BME280;8720;48.488;9.202;2022-12-29T00:20:35;96613.16;;;14.49;55.15
17209;BME280;8720;48.488;9.202;2022-12-29T00:23:21;96614.03;;;14.50;55.50
17209;BME280;8720;48.488;9.202;2022-12-29T00:26:13;96620.13;;;14.50;55.33
17209;BME280;8720;48.488;9.202;2022-12-29T00:28:59;96625.38;;;14.50;55.27
17209;BME280;8720;48.488;9.202;2022-12-29T00:31:44;96626.31;;;14.49;55.61
17209;BME280;8720;48.488;9.202;2022-12-29T00:34:31;96628.78;;;14.52;55.27
17209;BME280;8720;48.488;9.202;2022-12-29T00:37:16;96608.16;;;14.43;55.11
17209;BME280;8720;48.488;9.202;2022-12-29T00:40:05;96608.53;;;14.54;55.30
17209;BME280;8720;48.488;9.202;2022-12-29T00:42:51;96611.16;;;14.54;54.95
17209;BME280;8720;48.488;9.202;2022-12-29T00:45:35;96598.06;;;14.53;55.47
17209;BME280;8720;48.488;9.202;2022-12-29T00:48:04;96597.22;;;14.52;54.99
17209;BME280;8720;48.488;9.202;2022-12-29T00:50:31;96599.06;;;14.50;55.01
17209;BME280;8720;48.488;9.202;2022-12-29T00:52:58;96595.63;;;14.48;54.83
17209;BME280;8720;48.488;9.202;2022-12-29T00:55:25;96601.75;;;14.49;54.69
17209;BME280;8720;48.488;9.202;2022-12-29T00:57:53;96609.75;;;14.47;54.79
17209;BME280;8720;48.488;9.202;2022-12-29T01:00:21;96602.75;;;14.46;55.00
17209;BME280;8720;48.488;9.202;2022-12-29T01:02:48;96604.56;;;14.46;54.87
17209;BME280;8720;48.488;9.202;2022-12-29T01:05:16;96594.84;;;14.46;54.64
17209;BME280;8720;48.488;9.202;2022-12-29T01:07:43;96606.25;;;14.47;54.99
17209;BME280;8720;48.488;9.202;2022-12-29T01:10:11;96596.44;;;14.50;54.94
17209;BME280;8720;48.488;9.202;2022-12-29T01:12:37;96598.16;;;14.51;54.76
17209;BME280;8720;48.488;9.202;2022-12-29T01:15:13;96584.84;;;14.54;54.96
17209;BME280;8720;48.488;9.202;2022-12-29T01:17:41;96600.50;;;14.57;55.02
17209;BME280;8720;48.488;9.202;2022-12-29T01:20:10;96599.56;;;14.58;54.66
17209;BME280;8720;48.488;9.202;2022-12-29T01:22:38;96597.72;;;14.61;55.13
17209;BME280;8720;48.488;9.202;2022-12-29T01:25:06;96605.53;;;14.62;54.97
17209;BME280;8720;48.488;9.202;2022-12-29T01:27:34;96600.19;;;14.64;54.93
17209;BME280;8720;48.488;9.202;2022-12-29T01:30:02;96603.69;;;14.64;54.93
17209;BME280;8720;48.488;9.202;2022-12-29T01:32:32;96601.06;;;14.64;54.68
17209;BME280;8720;48.488;9.202;2022-12-29T01:35:00;96603.59;;;14.66;54.75
17209;BME280;8720;48.488;9.202;2022-12-29T01:37:27;96612.38;;;14.66;54.53
17209;BME280;8720;48.488;9.202;2022-12-29T01:39:54;96614.09;;;14.67;54.53
17209;BME280;8720;48.488;9.202;2022-12-29T01:42:24;96581.41;;;14.52;54.62
17209;BME280;8720;48.488;9.202;2022-12-29T01:44:55;96611.38;;;14.69;54.50
17209;BME280;8720;48.488;9.202;2022-12-29T01:47:39;96609.63;;;14.69;54.91
17209;BME280;8720;48.488;9.202;2022-12-29T01:50:12;96614.81;;;14.71;55.00
17209;BME280;8720;48.488;9.202;2022-12-29T01:52:51;96611.22;;;14.72;55.06
17209;BME280;8720;48.488;9.202;2022-12-29T01:55:22;96608.47;;;14.75;54.80
17209;BME280;8720;48.488;9.202;2022-12-29T01:57:53;96610.94;;;14.78;54.93
17209;BME280;8720;48.488;9.202;2022-12-29T02:00:21;96607.31;;;14.80;54.62
17209;BME280;8720;48.488;9.202;2022-12-29T02:02:52;96609.88;;;14.82;54.80
17209;BME280;8720;48.488;9.202;2022-12-29T02:05:27;96605.47;;;14.82;54.63
17209;BME280;8720;48.488;9.202;2022-12-29T02:07:57;96609.75;;;14.85;54.96
17209;BME280;8720;48.488;9.202;2022-12-29T02:10:28;96607.88;;;14.87;54.68
17209;BME280;8720;48.488;9.202;2022-12-29T02:12:57;96600.63;;;14.92;54.81
17209;BME280;8720;48.488;9.202;2022-12-29T02:15:36;96600.34;;;14.98;54.95
17209;BME280;8720;48.488;9.202;2022-12-29T02:18:25;96596.91;;;14.96;54.97
17209;BME280;8720;48.488;9.202;2022-12-29T02:21:45;96600.94;;;15.03;55.64
17209;BME280;8720;48.488;9.202;2022-12-29T02:28:09;96600.56;;;15.10;56.03
17209;BME280;8720;48.488;9.202;2022-12-29T02:31:01;96596.00;;;15.14;55.38
17209;BME280;8720;48.488;9.202;2022-12-29T02:33:46;96602.00;;;15.17;54.63
17209;BME280;8720;48.488;9.202;2022-12-29T02:36:27;96594.03;;;15.19;54.70
17209;BME280;8720;48.488;9.202;2022-12-29T02:39:07;96596.41;;;15.23;54.45
17209;BME280;8720;48.488;9.202;2022-12-29T02:41:49;96590.06;;;15.27;54.29
17209;BME280;8720;48.488;9.202;2022-12-29T02:44:27;96590.72;;;15.32;54.38
17209;BME280;8720;48.488;9.202;2022-12-29T02:47:08;96581.56;;;15.39;54.22
17209;BME280;8720;48.488;9.202;2022-12-29T02:49:46;96582.22;;;15.44;54.13
17209;BME280;8720;48.488;9.202;2022-12-29T02:52:25;96587.16;;;15.51;54.20
17209;BME280;8720;48.488;9.202;2022-12-29T02:54:55;96575.41;;;15.58;54.22
17209;BME280;8720;48.488;9.202;2022-12-29T02:57:31;96582.94;;;15.65;54.00
17209;BME280;8720;48.488;9.202;2022-12-29T03:00:04;96571.13;;;15.72;54.13
17209;BME280;8720;48.488;9.202;2022-12-29T03:03:08;96565.63;;;15.77;54.30
17209;BME280;8720;48.488;9.202;2022-12-29T03:06:06;96572.53;;;15.79;54.18
17209;BME280;8720;48.488;9.202;2022-12-29T03:08:49;96573.28;;;15.81;53.84
17209;BME280;8720;48.488;9.202;2022-12-29T03:11:26;96581.81;;;15.86;53.96
17209;BME280;8720;48.488;9.202;2022-12-29T03:14:19;96585.06;;;15.91;53.90
17209;BME280;8720;48.488;9.202;2022-12-29T03:17:24;96584.84;;;15.96;54.08
17209;BME280;8720;48.488;9.202;2022-12-29T03:20:05;96585.44;;;16.01;53.62
17209;BME280;8720;48.488;9.202;2022-12-29T03:22:43;96589.53;;;16.06;53.61
17209;BME280;8720;48.488;9.202;2022-12-29T03:25:23;96584.03;;;16.11;53.55
17209;BME280;8720;48.488;9.202;2022-12-29T03:27:56;96570.69;;;16.14;53.28
17209;BME280;8720;48.488;9.202;2022-12-29T03:30:28;96566.94;;;16.18;53.25
17209;BME280;8720;48.488;9.202;2022-12-29T03:33:01;96554.69;;;16.17;53.21
17209;BME280;8720;48.488;9.202;2022-12-29T03:35:37;96569.19;;;16.25;53.53
17209;BME280;8720;48.488;9.202;2022-12-29T03:38:16;96569.88;;;16.29;52.79
17209;BME280;8720;48.488;9.202;2022-12-29T03:40:50;96569.88;;;16.29;53.06
17209;BME280;8720;48.488;9.202;2022-12-29T03:43:19;96561.84;;;16.30;52.74
17209;BME280;8720;48.488;9.202;2022-12-29T03:45:47;96571.47;;;16.31;52.75
17209;BME280;8720;48.488;9.202;2022-12-29T03:48:15;96560.00;;;16.32;52.53
17209;BME280;8720;48.488;9.202;2022-12-29T03:50:46;96558.13;;;16.34;52.76
17209;BME280;8720;48.488;9.202;2022-12-29T03:53:14;96547.47;;;16.36;52.83
17209;BME280;8720;48.488;9.202;2022-12-29T03:55:42;96545.69;;;16.36;52.07
17209;BME280;8720;48.488;9.202;2022-12-29T03:58:11;96542.28;;;16.34;51.97
17209;BME280;8720;48.488;9.202;2022-12-29T04:00:56;96534.50;;;16.31;52.49
17209;BME280;8720;48.488;9.202;2022-12-29T04:03:23;96528.41;;;16.31;52.39
17209;BME280;8720;48.488;9.202;2022-12-29T04:05:52;96517.91;;;16.29;51.99
17209;BME280;8720;48.488;9.202;2022-12-29T04:08:19;96506.66;;;16.26;52.14
17209;BME280;8720;48.488;9.202;2022-12-29T04:10:48;96511.34;;;16.21;52.18
17209;BME280;8720;48.488;9.202;2022-12-29T04:13:17;96504.53;;;16.17;51.98
17209;BME280;8720;48.488;9.202;2022-12-29T04:15:44;96507.41;;;16.12;52.25
17209;BME280;8720;48.488;9.202;2022-12-29T04:18:12;96495.66;;;16.02;52.48
17209;BME280;8720;48.488;9.202;2022-12-29T04:20:40;96510.38;;;16.06;52.41
17209;BME280;8720;48.488;9.202;2022-12-29T04:23:27;96514.97;;;16.03;52.12
17209;BME280;8720;48.488;9.202;2022-12-29T04:25:54;96517.59;;;16.03;52.62
17209;BME280;8720;48.488;9.202;2022-12-29T04:28:22;96513.28;;;16.02;52.42
17209;BME280;8720;48.488;9.202;2022-12-29T04:31:10;96529.97;;;16.02;52.72
17209;BME280;8720;48.488;9.202;2022-12-29T04:33:40;96529.97;;;16.02;52.64
17209;BME280;8720;48.488;9.202;2022-12-29T04:36:08;96543.00;;;16.05;52.84
17209;BME280;8720;48.488;9.202;2022-12-29T04:38:38;96545.44;;;16.08;52.63
17209;BME280;8720;48.488;9.202;2022-12-29T04:41:06;96553.38;;;16.08;52.46
17209;BME280;8720;48.488;9.202;2022-12-29T04:43:35;96552.28;;;16.12;52.51
17209;BME280;8720;48.488;9.202;2022-12-29T04:46:23;96560.03;;;16.15;52.88
17209;BME280;8720;48.488;9.202;2022-12-29T04:49:03;96550.31;;;16.16;52.86
17209;BME280;8720;48.488;9.202;2022-12-29T04:51:59;96541.56;;;16.15;52.78
17209;BME280;8720;48.488;9.202;2022-12-29T04:54:29;96531.84;;;16.16;52.72
17209;BME280;8720;48.488;9.202;2022-12-29T04:57:11;96523.25;;;16.12;52.19
17209;BME280;8720;48.488;9.202;2022-12-29T04:59:39;96528.69;;;16.09;52.36
17209;BME280;8720;48.488;9.202;2022-12-29T05:02:07;96529.63;;;16.08;52.02
17209;BME280;8720;48.488;9.202;2022-12-29T05:04:35;96540.34;;;16.05;52.16
17209;BME280;8720;48.488;9.202;2022-12-29T05:07:02;96537.81;;;16.04;52.34
17209;BME280;8720;48.488;9.202;2022-12-29T05:09:31;96553.63;;;16.04;52.12
17209;BME280;8720;48.488;9.202;2022-12-29T05:12:00;96536.25;;;16.00;51.97
17209;BME280;8720;48.488;9.202;2022-12-29T05:14:28;96538.63;;;16.04;52.30
17209;BME280;8720;48.488;9.202;2022-12-29T05:16:56;96551.75;;;16.06;52.13
17209;BME280;8720;48.488;9.202;2022-12-29T05:19:25;96554.31;;;16.07;52.16
17209;BME280;8720;48.488;9.202;2022-12-29T05:21:53;96554.22;;;16.09;52.17
17209;BME280;8720;48.488;9.202;2022-12-29T05:24:20;96555.94;;;16.10;52.06
17209;BME280;8720;48.488;9.202;2022-12-29T05:26:49;96542.56;;;16.13;52.21
17209;BME280;8720;48.488;9.202;2022-12-29T05:29:35;96539.06;;;16.12;52.51
17209;BME280;8720;48.488;9.202;2022-12-29T05:32:03;96534.56;;;16.14;52.61
17209;BME280;8720;48.488;9.202;2022-12-29T05:34:30;96534.66;;;16.13;52.44
17209;BME280;8720;48.488;9.202;2022-12-29T05:36:58;96536.53;;;16.11;52.11
17209;BME280;8720;48.488;9.202;2022-12-29T05:39:25;96541.13;;;16.07;52.21
17209;BME280;8720;48.488;9.202;2022-12-29T05:41:58;96545.63;;;16.05;52.00
17209;BME280;8720;48.488;9.202;2022-12-29T05:44:48;96544.16;;;16.00;52.51
17209;BME280;8720;48.488;9.202;2022-12-29T05:47:24;96539.81;;;15.99;52.55
17209;BME280;8720;48.488;9.202;2022-12-29T05:50:05;96548.59;;;15.99;52.62
17209;BME280;8720;48.488;9.202;2022-12-29T05:52:52;96544.94;;;16.02;53.01
17209;BME280;8720;48.488;9.202;2022-12-29T05:55:20;96549.13;;;16.06;53.04
17209;BME280;8720;48.488;9.202;2022-12-29T05:57:51;96540.03;;;16.11;52.45
17209;BME280;8720;48.488;9.202;2022-12-29T06:00:19;96535.44;;;16.15;52.96
17209;BME280;8720;48.488;9.202;2022-12-29T06:02:47;96533.56;;;16.17;52.49
17209;BME280;8720;48.488;9.202;2022-12-29T06:05:16;96528.97;;;16.20;52.39
17209;BME280;8720;48.488;9.202;2022-12-29T06:07:43;96546.53;;;16.21;52.51
17209;BME280;8720;48.488;9.202;2022-12-29T06:10:13;96518.25;;;16.23;52.76
17209;BME280;8720;48.488;9.202;2022-12-29T06:12:44;96517.22;;;16.26;52.94
17209;BME280;8720;48.488;9.202;2022-12-29T06:15:14;96518.25;;;16.23;52.51
17209;BME280;8720;48.488;9.202;2022-12-29T06:17:42;96525.75;;;16.31;52.84
17209;BME280;8720;48.488;9.202;2022-12-29T06:20:11;96517.75;;;16.32;52.54
17209;BME280;8720;48.488;9.202;2022-12-29T06:22:38;96525.59;;;16.34;53.02
17209;BME280;8720;48.488;9.202;2022-12-29T06:25:06;96515.78;;;16.36;52.62
17209;BME280;8720;48.488;9.202;2022-12-29T06:27:35;96513.06;;;16.37;52.78
17209;BME280;8720;48.488;9.202;2022-12-29T06:30:03;96515.69;;;16.37;52.17
17209;BME280;8720;48.488;9.202;2022-12-29T06:32:31;96514.88;;;16.37;52.44
17209;BME280;8720;48.488;9.202;2022-12-29T06:35:05;96514.94;;;16.35;52.20
17209;BME280;8720;48.488;9.202;2022-12-29T06:37:38;96507.19;;;16.32;52.65
17209;BME280;8720;48.488;9.202;2022-12-29T06:40:07;96517.75;;;16.32;52.50
17209;BME280;8720;48.488;9.202;2022-12-29T06:42:52;96497.66;;;16.30;52.65
17209;BME280;8720;48.488;9.202;2022-12-29T06:45:38;96497.81;;;16.27;52.75
17209;BME280;8720;48.488;9.202;2022-12-29T06:48:08;96506.56;;;16.27;52.37
17209;BME280;8720;48.488;9.202;2022-12-29T06:50:35;96512.81;;;16.26;52.85
17209;BME280;8720;48.488;9.202;2022-12-29T06:53:02;96522.50;;;16.26;52.82
17209;BME280;8720;48.488;9.202;2022-12-29T06:55:30;96511.19;;;16.24;52.65
17209;BME280;8720;48.488;9.202;2022-12-29T06:57:58;96520.72;;;16.26;52.74
17209;BME280;8720;48.488;9.202;2022-12-29T07:00:26;96526.69;;;16.30;52.70
17209;BME280;8720;48.488;9.202;2022-12-29T07:02:55;96524.72;;;16.33;52.70
17209;BME280;8720;48.488;9.202;2022-12-29T07:05:25;96514.88;;;16.37;52.84
17209;BME280;8720;48.488;9.202;2022-12-29T07:07:54;96531.41;;;16.41;52.98
17209;BME280;8720;48.488;9.202;2022-12-29T07:10:22;96518.19;;;16.41;52.62
17209;BME280;8720;48.488;9.202;2022-12-29T07:12:50;96518.56;;;16.50;52.64
17209;BME280;8720;48.488;9.202;2022-12-29T07:15:17;96513.88;;;16.55;52.57
17209;BME280;8720;48.488;9.202;2022-12-29T07:17:44;96511.91;;;16.59;52.89
17209;BME280;8720;48.488;9.202;2022-12-29T07:20:11;96510.22;;;16.58;52.47
17209;BME280;8720;48.488;9.202;2022-12-29T07:22:41;96507.72;;;16.55;52.57
17209;BME280;8720;48.488;9.202;2022-12-29T07:25:09;96519.34;;;16.68;52.20
17209;BME280;8720;48.488;9.202;2022-12-29T07:27:36;96510.56;;;16.67;52.53
17209;BME280;8720;48.488;9.202;2022-12-29T07:30:04;96523.75;;;16.67;52.35
17209;BME280;8720;48.488;9.202;2022-12-29T07:32:33;96515.16;;;16.64;52.39
17209;BME280;8720;48.488;9.202;2022-12-29T07:35:00;96509.03;;;16.63;52.09
17209;BME280;8720;48.488;9.202;2022-12-29T07:37:28;96515.06;;;16.65;52.22
17209;BME280;8720;48.488;9.202;2022-12-29T07:39:57;96472.19;;;16.45;52.20
17209;BME280;8720;48.488;9.202;2022-12-29T07:42:24;96513.44;;;16.63;52.28
17209;BME280;8720;48.488;9.202;2022-12-29T07:44:52;96521.38;;;16.63;52.15
17209;BME280;8720;48.488;9.202;2022-12-29T07:47:26;96518.81;;;16.61;52.42
17209;BME280;8720;48.488;9.202;2022-12-29T07:49:53;96513.53;;;16.61;52.33
17209;BME280;8720;48.488;9.202;2022-12-29T07:52:21;96520.50;;;16.62;52.41
17209;BME280;8720;48.488;9.202;2022-12-29T07:54:48;96531.94;;;16.63;52.31
17209;BME280;8720;48.488;9.202;2022-12-29T07:57:16;96524.69;;;16.66;52.41
17209;BME280;8720;48.488;9.202;2022-12-29T07:59:44;96524.00;;;16.63;52.15
17209;BME280;8720;48.488;9.202;2022-12-29T08:02:11;96526.16;;;16.72;52.10
17209;BME280;8720;48.488;9.202;2022-12-29T08:04:38;96528.53;;;16.76;52.40
17209;BME280;8720;48.488;9.202;2022-12-29T08:07:06;96530.06;;;16.80;52.04
17209;BME280;8720;48.488;9.202;2022-12-29T08:09:33;96509.50;;;16.85;52.22
17209;BME280;8720;48.488;9.202;2022-12-29T08:12:00;96514.53;;;16.90;52.18
17209;BME280;8720;48.488;9.202;2022-12-29T08:14:29;96514.53;;;16.90;52.27
17209;BME280;8720;48.488;9.202;2022-12-29T08:16:57;96522.78;;;16.99;51.99
17209;BME280;8720;48.488;9.202;2022-12-29T08:19:24;96520.66;;;17.06;51.53
17209;BME280;8720;48.488;9.202;2022-12-29T08:21:52;96529.06;;;17.12;51.53
17209;BME280;8720;48.488;9.202;2022-12-29T08:24:19;96530.34;;;17.21;52.04
17209;BME280;8720;48.488;9.202;2022-12-29T08:26:46;96540.78;;;17.54;45.76
17209;BME280;8720;48.488;9.202;2022-12-29T08:29:14;96546.94;;;17.54;48.79
17209;BME280;8720;48.488;9.202;2022-12-29T08:31:43;96543.63;;;17.51;49.46
17209;BME280;8720;48.488;9.202;2022-12-29T08:34:11;96558.19;;;17.58;50.08
17209;BME280;8720;48.488;9.202;2022-12-29T08:36:38;96552.69;;;17.61;50.10
17209;BME280;8720;48.488;9.202;2022-12-29T08:39:06;96559.59;;;17.63;49.96
17209;BME280;8720;48.488;9.202;2022-12-29T08:41:33;96556.84;;;17.65;50.36
17209;BME280;8720;48.488;9.202;2022-12-29T08:44:00;96558.47;;;17.67;50.09
17209;BME280;8720;48.488;9.202;2022-12-29T08:46:28;96550.53;;;17.67;50.13
17209;BME280;8720;48.488;9.202;2022-12-29T08:48:57;96554.81;;;17.70;49.96
17209;BME280;8720;48.488;9.202;2022-12-29T08:51:24;96542.59;;;17.67;49.95
17209;BME280;8720;48.488;9.202;2022-12-29T08:53:52;96556.34;;;17.74;50.13
17209;BME280;8720;48.488;9.202;2022-12-29T08:56:20;96563.31;;;17.75;50.48
17209;BME280;8720;48.488;9.202;2022-12-29T08:58:51;96561.53;;;17.75;50.37
17209;BME280;8720;48.488;9.202;2022-12-29T09:01:21;96559.75;;;17.76;50.35
17209;BME280;8720;48.488;9.202;2022-12-29T09:03:49;96568.72;;;17.73;50.36
17209;BME280;8720;48.488;9.202;2022-12-29T09:06:18;96560.66;;;17.75;50.05
17209;BME280;8720;48.488;9.202;2022-12-29T09:08:45;96568.50;;;17.76;50.50
17209;BME280;8720;48.488;9.202;2022-12-29T09:11:16;96579.94;;;17.77;50.18
17209;BME280;8720;48.488;9.202;2022-12-29T09:13:43;96580.81;;;17.77;50.56
17209;BME280;8720;48.488;9.202;2022-12-29T09:16:11;96569.38;;;17.77;50.13
17209;BME280;8720;48.488;9.202;2022-12-29T09:18:39;96580.81;;;17.77;50.25
17209;BME280;8720;48.488;9.202;2022-12-29T09:21:09;96592.25;;;17.78;50.51
17209;BME280;8720;48.488;9.202;2022-12-29T09:23:38;96585.16;;;17.78;50.56
17209;BME280;8720;48.488;9.202;2022-12-29T09:26:07;96589.63;;;17.78;50.42
17209;BME280;8720;48.488;9.202;2022-12-29T09:28:35;96594.91;;;17.78;50.61
17209;BME280;8720;48.488;9.202;2022-12-29T09:31:03;96601.13;;;17.77;50.57
17209;BME280;8720;48.488;9.202;2022-12-29T09:33:30;96604.63;;;17.77;50.87
17209;BME280;8720;48.488;9.202;2022-12-29T09:36:00;96609.06;;;17.77;50.49
17209;BME280;8720;48.488;9.202;2022-12-29T09:38:28;96610.69;;;17.79;50.72
17209;BME280;8720;48.488;9.202;2022-12-29T09:41:04;96623.72;;;17.82;50.40
17209;BME280;8720;48.488;9.202;2022-12-29T09:44:00;96610.50;;;17.82;51.13
17209;BME280;8720;48.488;9.202;2022-12-29T09:46:35;96612.28;;;17.82;50.93
17209;BME280;8720;48.488;9.202;2022-12-29T09:49:19;96601.63;;;17.83;51.22
17209;BME280;8720;48.488;9.202;2022-12-29T09:51:53;96604.28;;;17.83;50.87
17209;BME280;8720;48.488;9.202;2022-12-29T09:54:37;96596.22;;;17.85;51.14
17209;BME280;8720;48.488;9.202;2022-12-29T09:57:19;96595.28;;;17.86;50.73
17209;BME280;8720;48.488;9.202;2022-12-29T09:59:54;96578.47;;;17.87;51.03
17209;BME280;8720;48.488;9.202;2022-12-29T10:02:36;96580.16;;;17.88;50.61
17209;BME280;8720;48.488;9.202;2022-12-29T10:05:15;96572.97;;;17.90;50.85
17209;BME280;8720;48.488;9.202;2022-12-29T10:07:55;96569.22;;;17.94;51.04
17209;BME280;8720;48.488;9.202;2022-12-29T10:10:37;96577.91;;;17.96;50.93
17209;BME280;8720;48.488;9.202;2022-12-29T10:13:26;96582.19;;;17.98;51.57
17209;BME280;8720;48.488;9.202;2022-12-29T10:16:02;96587.38;;;18.00;51.04
17209;BME280;8720;48.488;9.202;2022-12-29T10:21:59;96586.44;;;18.01;51.37
17209;BME280;8720;48.488;9.202;2022-12-29T10:24:31;96581.88;;;18.03;51.19
17209;BME280;8720;48.488;9.202;2022-12-29T10:27:03;96573.94;;;18.03;51.03
17209;BME280;8720;48.488;9.202;2022-12-29T10:29:37;96576.69;;;18.01;50.95
17209;BME280;8720;48.488;9.202;2022-12-29T10:32:20;96576.59;;;18.03;50.77
17209;BME280;8720;48.488;9.202;2022-12-29T10:34:54;96581.16;;;18.01;50.80
17209;BME280;8720;48.488;9.202;2022-12-29T10:37:34;96581.16;;;18.01;51.00
17209;BME280;8720;48.488;9.202;2022-12-29T10:40:19;96582.94;;;18.00;51.38
17209;BME280;8720;48.488;9.202;2022-12-29T10:42:54;96574.13;;;18.00;51.04
17209;BME280;8720;48.488;9.202;2022-12-29T10:45:28;96590.03;;;18.00;50.86
17209;BME280;8720;48.488;9.202;2022-12-29T10:48:03;96588.41;;;17.97;51.15
17209;BME280;8720;48.488;9.202;2022-12-29T10:50:33;96591.03;;;17.97;50.95
17209;BME280;8720;48.488;9.202;2022-12-29T10:53:04;96582.34;;;17.95;50.87
17209;BME280;8720;48.488;9.202;2022-12-29T10:55:35;96594.91;;;17.92;50.88
17209;BME280;8720;48.488;9.202;2022-12-29T10:58:09;96579.13;;;17.90;51.30
17209;BME280;8720;48.488;9.202;2022-12-29T11:00:38;96596.91;;;17.88;51.26
17209;BME280;8720;48.488;9.202;2022-12-29T11:03:30;96595.38;;;17.84;51.21
17209;BME280;8720;48.488;9.202;2022-12-29T11:06:06;96589.22;;;17.84;51.23
17209;BME280;8720;48.488;9.202;2022-12-29T11:08:39;96594.50;;;17.84;51.43
17209;BME280;8720;48.488;9.202;2022-12-29T11:11:09;96589.16;;;17.85;51.87
17209;BME280;8720;48.488;9.202;2022-12-29T11:13:49;96588.41;;;17.83;51.83
17209;BME280;8720;48.488;9.202;2022-12-29T11:16:28;96588.97;;;17.88;51.59
17209;BME280;8720;48.488;9.202;2022-12-29T11:18:58;96604.75;;;17.90;52.11
17209;BME280;8720;48.488;9.202;2022-12-29T11:21:33;96610.03;;;17.90;52.35
17209;BME280;8720;48.488;9.202;2022-12-29T11:24:21;96603.97;;;17.88;52.49
17209;BME280;8720;48.488;9.202;2022-12-29T11:26:51;96602.91;;;17.76;52.96
17209;BME280;8720;48.488;9.202;2022-12-29T11:29:28;96612.22;;;17.83;52.75
17209;BME280;8720;48.488;9.202;2022-12-29T11:32:16;96613.91;;;17.84;52.99
17209;BME280;8720;48.488;9.202;2022-12-29T11:34:44;96620.81;;;17.87;52.96
17209;BME280;8720;48.488;9.202;2022-12-29T11:37:14;96615.22;;;17.91;53.02
17209;BME280;8720;48.488;9.202;2022-12-29T11:39:50;96603.72;;;17.92;53.58
17209;BME280;8720;48.488;9.202;2022-12-29T11:42:23;96601.47;;;18.00;53.53
17209;BME280;8720;48.488;9.202;2022-12-29T11:44:51;96607.22;;;18.07;53.30
17209;BME280;8720;48.488;9.202;2022-12-29T11:47:28;96596.63;;;18.07;53.24
17209;BME280;8720;48.488;9.202;2022-12-29T11:49:59;96598.66;;;18.17;53.37
17209;BME280;8720;48.488;9.202;2022-12-29T11:52:31;96592.41;;;18.18;53.04
17209;BME280;8720;48.488;9.202;2022-12-29T11:55:04;96594.22;;;18.18;52.85
17209;BME280;8720;48.488;9.202;2022-12-29T11:57:34;96593.25;;;18.19;53.07
17209;BME280;8720;48.488;9.202;2022-12-29T12:00:14;96576.06;;;18.12;52.71
17209;BME280;8720;48.488;9.202;2022-12-29T12:02:51;96599.59;;;18.16;52.60
17209;BME280;8720;48.488;9.202;2022-12-29T12:05:33;96590.88;;;18.14;52.79
17209;BME280;8720;48.488;9.202;2022-12-29T12:08:11;96599.13;;;18.10;52.84
17209;BME280;8720;48.488;9.202;2022-12-29T12:10:46;96607.31;;;18.05;52.58
17209;BME280;8720;48.488;9.202;2022-12-29T12:13:22;96597.97;;;18.00;52.97
17209;BME280;8720;48.488;9.202;2022-12-29T12:15:59;96596.44;;;17.96;52.82
17209;BME280;8720;48.488;9.202;2022-12-29T12:18:45;96602.09;;;17.90;53.44
17209;BME280;8720;48.488;9.202;2022-12-29T12:21:24;96598.88;;;17.85;53.13
17209;BME280;8720;48.488;9.202;2022-12-29T12:24:34;96591.56;;;17.74;54.12
17209;BME280;8720;48.488;9.202;2022-12-29T12:27:12;96597.22;;;17.68;53.81
17209;BME280;8720;48.488;9.202;2022-12-29T12:29:52;96605.44;;;17.64;53.62
17209;BME280;8720;48.488;9.202;2022-12-29T12:32:34;96602.19;;;17.59;53.80
17209;BME280;8720;48.488;9.202;2022-12-29T12:35:13;96603.34;;;17.55;54.43
17209;BME280;8720;48.488;9.202;2022-12-29T12:38:04;96602.72;;;17.50;54.36
17209;BME280;8720;48.488;9.202;2022-12-29T12:41:01;96601.25;;;17.44;54.83
17209;BME280;8720;48.488;9.202;2022-12-29T12:43:40;96593.22;;;17.46;54.36
17209;BME280;8720;48.488;9.202;2022-12-29T12:47:00;96597.44;;;17.50;55.17
17209;BME280;8720;48.488;9.202;2022-12-29T12:50:20;96588.47;;;17.52;55.15
17209;BME280;8720;48.488;9.202;2022-12-29T12:53:24;96590.19;;;17.53;55.51
17209;BME280;8720;48.488;9.202;2022-12-29T12:56:22;96578.56;;;17.56;54.81
17209;BME280;8720;48.488;9.202;2022-12-29T12:58:59;96586.41;;;17.57;54.75
17209;BME280;8720;48.488;9.202;2022-12-29T13:01:41;96591.44;;;17.62;54.69
17209;BME280;8720;48.488;9.202;2022-12-29T13:04:37;96587.84;;;17.63;55.00
17209;BME280;8720;48.488;9.202;2022-12-29T13:07:22;96584.38;;;17.62;54.38
17209;BME280;8720;48.488;9.202;2022-12-29T13:10:19;96581.78;;;17.61;54.96
17209;BME280;8720;48.488;9.202;2022-12-29T13:13:05;96572.41;;;17.55;54.54
17209;BME280;8720;48.488;9.202;2022-12-29T13:15:45;96566.38;;;17.53;54.49
17209;BME280;8720;48.488;9.202;2022-12-29T13:18:26;96560.50;;;17.48;54.43
17209;BME280;8720;48.488;9.202;2022-12-29T13:21:07;96542.06;;;17.47;54.78
17209;BME280;8720;48.488;9.202;2022-12-29T13:23:45;96542.22;;;17.44;54.82
17209;BME280;8720;48.488;9.202;2022-12-29T13:26:20;96540.69;;;17.40;54.58
17209;BME280;8720;48.488;9.202;2022-12-29T13:28:59;96551.28;;;17.40;54.77
17209;BME280;8720;48.488;9.202;2022-12-29T13:31:41;96551.47;;;17.37;54.94
17209;BME280;8720;48.488;9.202;2022-12-29T13:34:27;96555.63;;;17.41;54.75
17209;BME280;8720;48.488;9.202;2022-12-29T13:37:01;96552.78;;;17.44;54.54
17209;BME280;8720;48.488;9.202;2022-12-29T13:39:37;96556.97;;;17.48;54.40
17209;BME280;8720;48.488;9.202;2022-12-29T13:42:07;96530.66;;;17.31;54.54
17209;BME280;8720;48.488;9.202;2022-12-29T13:44:41;96553.47;;;17.47;54.45
17209;BME280;8720;48.488;9.202;2022-12-29T13:47:21;96546.69;;;17.43;54.78
17209;BME280;8720;48.488;9.202;2022-12-29T13:49:52;96551.97;;;17.43;54.69
17209;BME280;8720;48.488;9.202;2022-12-29T13:52:34;96549.59;;;17.39;54.63
17209;BME280;8720;48.488;9.202;2022-12-29T13:55:20;96556.22;;;17.46;54.79